createdAt,value
2019-03-25T00:00:22.148Z,1012.62
2019-03-25T00:01:22.482Z,1012.60
2019-03-25T00:02:22.793Z,1012.56
2019-03-25T00:03:23.153Z,1012.59
2019-03-25T00:04:23.445Z,1012.60
2019-03-25T00:05:23.811Z,1012.56
2019-03-25T00:06:24.117Z,1012.55
2019-03-25T00:07:24.540Z,1012.63
2019-03-25T00:08:24.795Z,1012.60
2019-03-25T00:09:25.075Z,1012.59
2019-03-25T00:10:25.444Z,1012.50
2019-03-25T00:11:25.771Z,1012.53
2019-03-25T00:12:26.101Z,1012.48
2019-03-25T00:13:26.472Z,1012.49
2019-03-25T00:14:26.760Z,1012.47
2019-03-25T00:15:27.136Z,1012.49
2019-03-25T00:16:27.424Z,1012.49
2019-03-25T00:17:27.758Z,1012.50
2019-03-25T00:18:28.101Z,1012.49
2019-03-25T00:19:28.407Z,1012.47
2019-03-25T00:20:28.755Z,1012.44
2019-03-25T00:21:29.063Z,1012.47
2019-03-25T00:22:29.393Z,1012.42
2019-03-25T00:23:29.769Z,1012.40
2019-03-25T00:24:38.246Z,1012.38
2019-03-25T00:25:31.460Z,1012.36
2019-03-25T00:26:30.767Z,1012.38
2019-03-25T00:27:31.074Z,1012.35
2019-03-25T00:28:31.452Z,1012.31
2019-03-25T00:29:45.402Z,1012.34
2019-03-25T00:30:32.087Z,1012.33
2019-03-25T00:31:32.462Z,1012.31
2019-03-25T00:32:33.051Z,1012.26
2019-03-25T00:33:33.089Z,1012.28
2019-03-25T00:34:33.397Z,1012.27
2019-03-25T00:35:33.740Z,1012.22
2019-03-25T00:36:34.066Z,1012.24
2019-03-25T00:37:34.375Z,1012.26
2019-03-25T00:38:34.707Z,1012.25
2019-03-25T00:39:35.039Z,1012.22
2019-03-25T00:40:35.440Z,1012.16
2019-03-25T00:41:35.686Z,1012.12
2019-03-25T00:42:35.997Z,1012.18
2019-03-25T00:43:36.356Z,1012.19
2019-03-25T00:44:36.687Z,1012.19
2019-03-25T00:45:37.006Z,1012.11
2019-03-25T00:46:37.352Z,1012.16
2019-03-25T00:47:37.687Z,1012.13
2019-03-25T00:48:38.036Z,1012.09
2019-03-25T00:49:38.334Z,1012.08
2019-03-25T00:50:38.674Z,1012.13
2019-03-25T00:51:39.016Z,1012.00
2019-03-25T00:52:39.346Z,1012.03
2019-03-25T00:53:39.699Z,1011.96
2019-03-25T00:54:49.381Z,1011.93
2019-03-25T00:55:41.315Z,1011.89
2019-03-25T00:56:40.734Z,1011.90
2019-03-25T00:57:40.969Z,1011.87
2019-03-25T00:58:41.327Z,1011.92
2019-03-25T00:59:41.661Z,1011.79
2019-03-25T01:00:41.956Z,1011.76
2019-03-25T01:01:42.308Z,1011.77
2019-03-25T01:02:42.659Z,1011.65
2019-03-25T01:03:43.017Z,1011.64
2019-03-25T01:04:43.336Z,1011.60
2019-03-25T01:05:43.692Z,1011.56
2019-03-25T01:06:43.965Z,1011.60
2019-03-25T01:07:44.298Z,1011.60
2019-03-25T01:08:44.650Z,1011.61
2019-03-25T01:09:44.960Z,1011.61
2019-03-25T01:10:45.280Z,1011.61
2019-03-25T01:11:49.125Z,1011.56
2019-03-25T01:12:45.924Z,1011.52
2019-03-25T01:13:46.403Z,1011.41
2019-03-25T01:14:46.608Z,1011.39
2019-03-25T01:15:46.922Z,1011.36
2019-03-25T01:16:47.255Z,1011.37
2019-03-25T01:17:47.566Z,1011.31
2019-03-25T01:18:47.943Z,1011.32
2019-03-25T01:19:48.264Z,1011.29
2019-03-25T01:20:48.578Z,1011.27
2019-03-25T01:21:48.988Z,1011.23
2019-03-25T01:22:49.203Z,1011.19
2019-03-25T01:23:49.569Z,1011.24
2019-03-25T01:25:00.821Z,1011.24
2019-03-25T01:25:51.213Z,1011.19
2019-03-25T01:26:50.565Z,1011.17
2019-03-25T01:27:50.869Z,1011.18
2019-03-25T01:28:51.213Z,1011.15
2019-03-25T01:29:51.597Z,1011.08
2019-03-25T01:30:51.857Z,1011.11
2019-03-25T01:31:52.211Z,1011.06
2019-03-25T01:32:52.516Z,1011.04
2019-03-25T01:33:52.861Z,1011.07
2019-03-25T01:34:53.177Z,1011.02
2019-03-25T01:35:53.518Z,1011.02
2019-03-25T01:36:53.860Z,1011.05
2019-03-25T01:37:54.212Z,1010.99
2019-03-25T01:38:54.559Z,1010.96
2019-03-25T01:39:54.823Z,1010.96
2019-03-25T01:40:55.160Z,1010.96
2019-03-25T01:41:55.506Z,1010.91
2019-03-25T01:42:55.808Z,1010.92
2019-03-25T01:43:56.165Z,1010.89
2019-03-25T01:44:56.495Z,1010.89
2019-03-25T01:45:56.796Z,1010.87
2019-03-25T01:46:57.242Z,1010.86
2019-03-25T01:47:57.461Z,1010.83
2019-03-25T01:48:57.816Z,1010.74
2019-03-25T01:49:58.169Z,1010.76
2019-03-25T01:50:58.427Z,1010.85
2019-03-25T01:51:58.792Z,1010.71
2019-03-25T01:52:59.106Z,1010.71
2019-03-25T01:53:59.440Z,1010.66
2019-03-25T01:55:00.353Z,1010.68
2019-03-25T01:56:00.091Z,1010.64
2019-03-25T01:57:00.455Z,1010.61
2019-03-25T01:58:00.765Z,1010.63
2019-03-25T01:59:01.080Z,1010.65
2019-03-25T02:00:01.460Z,1010.60
2019-03-25T02:01:01.755Z,1010.57
2019-03-25T02:02:02.084Z,1010.57
2019-03-25T02:03:02.465Z,1010.54
2019-03-25T02:04:02.720Z,1010.49
2019-03-25T02:05:03.091Z,1010.51
2019-03-25T02:06:03.390Z,1010.47
2019-03-25T02:07:03.739Z,1010.46
2019-03-25T02:08:04.035Z,1010.44
2019-03-25T02:09:04.375Z,1010.41
2019-03-25T02:10:04.769Z,1010.41
2019-03-25T02:11:05.077Z,1010.41
2019-03-25T02:12:05.365Z,1010.44
2019-03-25T02:13:05.679Z,1010.46
2019-03-25T02:14:06.024Z,1010.41
2019-03-25T02:15:06.413Z,1010.39
2019-03-25T02:16:06.694Z,1010.31
2019-03-25T02:17:07.042Z,1010.34
2019-03-25T02:18:07.345Z,1010.35
2019-03-25T02:19:07.701Z,1010.29
2019-03-25T02:20:08.155Z,1010.30
2019-03-25T02:21:08.355Z,1010.28
2019-03-25T02:22:08.938Z,1010.17
2019-03-25T02:23:09.425Z,1010.18
2019-03-25T02:24:09.335Z,1010.23
2019-03-25T02:25:09.683Z,1010.17
2019-03-25T02:26:10.007Z,1010.15
2019-03-25T02:27:10.350Z,1010.15
2019-03-25T02:28:10.771Z,1010.11
2019-03-25T02:29:10.969Z,1010.10
2019-03-25T02:30:11.333Z,1010.11
2019-03-25T02:31:11.676Z,1010.09
2019-03-25T02:32:12.005Z,1010.07
2019-03-25T02:33:12.335Z,1010.09
2019-03-25T02:34:12.655Z,1010.00
2019-03-25T02:35:12.983Z,1010.01
2019-03-25T02:36:13.377Z,1010.01
2019-03-25T02:37:13.644Z,1009.98
2019-03-25T02:38:13.962Z,1009.95
2019-03-25T02:39:14.298Z,1009.94
2019-03-25T02:40:14.660Z,1009.91
2019-03-25T02:41:14.938Z,1009.98
2019-03-25T02:42:15.297Z,1009.97
2019-03-25T02:43:15.636Z,1009.93
2019-03-25T02:44:15.994Z,1009.91
2019-03-25T02:45:16.285Z,1009.85
2019-03-25T02:46:16.619Z,1009.90
2019-03-25T02:47:16.926Z,1009.85
2019-03-25T02:48:17.249Z,1009.81
2019-03-25T02:49:17.602Z,1009.81
2019-03-25T02:50:17.933Z,1009.83
2019-03-25T02:51:18.245Z,1009.78
2019-03-25T02:52:18.595Z,1009.84
2019-03-25T02:53:18.973Z,1009.74
2019-03-25T02:54:19.273Z,1009.74
2019-03-25T02:55:19.604Z,1009.69
2019-03-25T02:56:19.900Z,1009.72
2019-03-25T02:57:20.224Z,1009.69
2019-03-25T02:58:20.555Z,1009.68
2019-03-25T02:59:20.947Z,1009.69
2019-03-25T03:00:21.257Z,1009.61
2019-03-25T03:01:21.685Z,1009.57
2019-03-25T03:02:21.873Z,1009.51
2019-03-25T03:03:22.242Z,1009.50
2019-03-25T03:04:22.628Z,1009.54
2019-03-25T03:05:22.935Z,1009.52
2019-03-25T03:06:23.245Z,1009.47
2019-03-25T03:07:23.643Z,1009.49
2019-03-25T03:08:23.934Z,1009.49
2019-03-25T03:09:24.344Z,1009.47
2019-03-25T03:10:24.581Z,1009.42
2019-03-25T03:11:24.898Z,1009.37
2019-03-25T03:12:25.218Z,1009.32
2019-03-25T03:13:25.564Z,1009.35
2019-03-25T03:14:25.870Z,1009.40
2019-03-25T03:15:26.229Z,1009.30
2019-03-25T03:16:26.562Z,1009.33
2019-03-25T03:17:26.910Z,1009.34
2019-03-25T03:18:27.206Z,1009.31
2019-03-25T03:19:27.529Z,1009.29
2019-03-25T03:20:27.856Z,1009.26
2019-03-25T03:21:28.204Z,1009.24
2019-03-25T03:22:28.530Z,1009.24
2019-03-25T03:23:28.874Z,1009.25
2019-03-25T03:24:29.183Z,1009.19
2019-03-25T03:25:29.588Z,1009.23
2019-03-25T03:26:29.852Z,1009.18
2019-03-25T03:27:30.227Z,1009.17
2019-03-25T03:28:30.531Z,1009.26
2019-03-25T03:29:30.841Z,1009.11
2019-03-25T03:30:31.181Z,1009.11
2019-03-25T03:31:31.491Z,1009.07
2019-03-25T03:32:31.822Z,1009.05
2019-03-25T03:33:32.208Z,1009.03
2019-03-25T03:34:32.618Z,1008.98
2019-03-25T03:35:32.866Z,1009.01
2019-03-25T03:36:33.146Z,1008.96
2019-03-25T03:37:33.481Z,1008.96
2019-03-25T03:38:33.846Z,1008.94
2019-03-25T03:39:34.160Z,1008.93
2019-03-25T03:40:34.505Z,1008.90
2019-03-25T03:41:34.829Z,1008.93
2019-03-25T03:42:35.286Z,1008.89
2019-03-25T03:43:35.504Z,1008.84
2019-03-25T03:44:35.821Z,1008.85
2019-03-25T03:45:36.166Z,1008.87
2019-03-25T03:46:36.469Z,1008.91
2019-03-25T03:47:36.796Z,1008.85
2019-03-25T03:48:37.157Z,1008.90
2019-03-25T03:49:37.474Z,1008.76
2019-03-25T03:50:37.868Z,1008.83
2019-03-25T03:51:38.135Z,1008.72
2019-03-25T03:52:38.451Z,1008.78
2019-03-25T03:53:38.798Z,1008.72
2019-03-25T03:54:39.126Z,1008.71
2019-03-25T03:55:39.445Z,1008.72
2019-03-25T03:56:39.797Z,1008.69
2019-03-25T03:57:40.105Z,1008.76
2019-03-25T03:58:40.460Z,1008.70
2019-03-25T03:59:40.735Z,1008.69
2019-03-25T04:00:41.095Z,1008.59
2019-03-25T04:01:41.834Z,1008.62
2019-03-25T04:02:41.983Z,1008.59
2019-03-25T04:03:42.089Z,1008.59
2019-03-25T04:04:42.416Z,1008.57
2019-03-25T04:05:42.747Z,1008.56
2019-03-25T04:06:43.146Z,1008.56
2019-03-25T04:07:43.460Z,1008.55
2019-03-25T04:08:43.772Z,1008.51
2019-03-25T04:09:44.079Z,1008.46
2019-03-25T04:10:44.410Z,1008.45
2019-03-25T04:11:44.763Z,1008.48
2019-03-25T04:12:45.063Z,1008.39
2019-03-25T04:13:45.414Z,1008.40
2019-03-25T04:14:45.731Z,1008.36
2019-03-25T04:15:46.191Z,1008.42
2019-03-25T04:16:46.399Z,1008.36
2019-03-25T04:17:46.707Z,1008.34
2019-03-25T04:18:47.051Z,1008.34
2019-03-25T04:19:47.362Z,1008.35
2019-03-25T04:20:47.698Z,1008.27
2019-03-25T04:21:48.035Z,1008.24
2019-03-25T04:22:48.368Z,1008.25
2019-03-25T04:23:48.796Z,1008.21
2019-03-25T04:24:49.003Z,1008.19
2019-03-25T04:25:49.338Z,1008.22
2019-03-25T04:26:49.659Z,1008.15
2019-03-25T04:27:50.009Z,1008.08
2019-03-25T04:28:50.343Z,1008.12
2019-03-25T04:29:50.653Z,1008.09
2019-03-25T04:30:50.985Z,1008.02
2019-03-25T04:31:51.361Z,1007.99
2019-03-25T04:32:51.823Z,1007.98
2019-03-25T04:33:51.981Z,1007.98
2019-03-25T04:34:52.295Z,1007.96
2019-03-25T04:35:52.623Z,1007.91
2019-03-25T04:36:52.984Z,1007.89
2019-03-25T04:37:56.177Z,1007.89
2019-03-25T04:38:53.615Z,1007.90
2019-03-25T04:39:54.012Z,1007.86
2019-03-25T04:40:54.301Z,1007.91
2019-03-25T04:41:54.648Z,1007.88
2019-03-25T04:42:54.954Z,1007.94
2019-03-25T04:43:55.279Z,1007.93
2019-03-25T04:44:55.582Z,1007.90
2019-03-25T04:45:55.935Z,1007.86
2019-03-25T04:46:56.282Z,1007.83
2019-03-25T04:47:56.612Z,1007.83
2019-03-25T04:48:57.040Z,1007.73
2019-03-25T04:49:57.247Z,1007.71
2019-03-25T04:50:57.582Z,1007.73
2019-03-25T04:51:57.925Z,1007.66
2019-03-25T04:52:58.249Z,1007.66
2019-03-25T04:53:58.589Z,1007.64
2019-03-25T04:54:58.876Z,1007.65
2019-03-25T04:55:59.208Z,1007.62
2019-03-25T04:56:59.722Z,1007.66
2019-03-25T04:57:59.898Z,1007.63
2019-03-25T04:59:00.238Z,1007.69
2019-03-25T05:00:00.555Z,1007.69
2019-03-25T05:01:05.841Z,1007.68
2019-03-25T05:02:01.225Z,1007.68
2019-03-25T05:03:01.558Z,1007.66
2019-03-25T05:04:01.882Z,1007.60
2019-03-25T05:05:02.283Z,1007.60
2019-03-25T05:06:02.482Z,1007.59
2019-03-25T05:07:02.873Z,1007.56
2019-03-25T05:08:03.186Z,1007.54
2019-03-25T05:09:03.519Z,1007.52
2019-03-25T05:10:03.832Z,1007.51
2019-03-25T05:11:04.158Z,1007.46
2019-03-25T05:12:04.492Z,1007.45
2019-03-25T05:13:04.883Z,1007.46
2019-03-25T05:14:05.129Z,1007.43
2019-03-25T05:15:05.468Z,1007.38
2019-03-25T05:16:05.790Z,1007.35
2019-03-25T05:17:06.122Z,1007.31
2019-03-25T05:18:06.440Z,1007.30
2019-03-25T05:19:06.788Z,1007.30
2019-03-25T05:20:07.130Z,1007.26
2019-03-25T05:21:07.480Z,1007.22
2019-03-25T05:22:07.943Z,1007.21
2019-03-25T05:23:08.114Z,1007.13
2019-03-25T05:24:08.450Z,1007.22
2019-03-25T05:25:08.793Z,1007.20
2019-03-25T05:26:09.109Z,1007.17
2019-03-25T05:27:09.460Z,1007.17
2019-03-25T05:28:09.776Z,1007.09
2019-03-25T05:29:10.094Z,1007.12
2019-03-25T05:30:10.523Z,1007.15
2019-03-25T05:31:10.767Z,1007.12
2019-03-25T05:32:11.491Z,1007.16
2019-03-25T05:33:11.427Z,1007.14
2019-03-25T05:34:11.738Z,1007.11
2019-03-25T05:35:12.084Z,1007.11
2019-03-25T05:36:12.400Z,1007.12
2019-03-25T05:37:12.755Z,1007.10
2019-03-25T05:38:13.173Z,1007.01
2019-03-25T05:39:13.372Z,1007.06
2019-03-25T05:40:13.970Z,1007.00
2019-03-25T05:41:14.052Z,1006.98
2019-03-25T05:42:14.393Z,1007.08
2019-03-25T05:43:14.716Z,1006.99
2019-03-25T05:44:15.035Z,1006.97
2019-03-25T05:45:15.365Z,1006.98
2019-03-25T05:46:15.747Z,1007.00
2019-03-25T05:47:16.031Z,1006.95
2019-03-25T05:48:16.381Z,1006.92
2019-03-25T05:49:16.700Z,1006.94
2019-03-25T05:50:17.035Z,1006.94
2019-03-25T05:51:17.333Z,1006.89
2019-03-25T05:52:17.690Z,1006.87
2019-03-25T05:53:18.018Z,1006.88
2019-03-25T05:54:18.396Z,1006.89
2019-03-25T05:55:18.705Z,1006.89
2019-03-25T05:56:18.984Z,1006.92
2019-03-25T05:57:19.334Z,1006.93
2019-03-25T05:58:19.708Z,1007.03
2019-03-25T05:59:19.993Z,1006.95
2019-03-25T06:00:20.339Z,1007.01
2019-03-25T06:01:20.651Z,1007.01
2019-03-25T06:02:21.022Z,1007.03
2019-03-25T06:03:21.443Z,1007.02
2019-03-25T06:04:21.641Z,1006.97
2019-03-25T06:05:21.988Z,1007.07
2019-03-25T06:06:22.301Z,1007.00
2019-03-25T06:07:22.648Z,1007.01
2019-03-25T06:08:22.972Z,1006.98
2019-03-25T06:09:23.292Z,1006.97
2019-03-25T06:10:23.633Z,1006.94
2019-03-25T06:11:24.035Z,1007.01
2019-03-25T06:12:24.273Z,1006.95
2019-03-25T06:13:24.626Z,1006.94
2019-03-25T06:14:24.959Z,1006.93
2019-03-25T06:15:25.301Z,1006.92
2019-03-25T06:16:25.614Z,1006.90
2019-03-25T06:17:25.957Z,1006.88
2019-03-25T06:18:26.276Z,1006.88
2019-03-25T06:19:26.669Z,1006.84
2019-03-25T06:20:26.933Z,1006.77
2019-03-25T06:21:27.255Z,1006.87
2019-03-25T06:22:27.586Z,1006.91
2019-03-25T06:23:27.938Z,1006.88
2019-03-25T06:24:28.253Z,1006.88
2019-03-25T06:25:28.612Z,1006.84
2019-03-25T06:26:28.935Z,1006.87
2019-03-25T06:27:29.315Z,1006.88
2019-03-25T06:28:29.610Z,1006.85
2019-03-25T06:29:31.944Z,1006.84
2019-03-25T06:30:30.251Z,1006.86
2019-03-25T06:31:30.595Z,1006.95
2019-03-25T06:32:30.944Z,1006.88
2019-03-25T06:33:31.290Z,1006.91
2019-03-25T06:34:31.623Z,1006.93
2019-03-25T06:35:31.962Z,1006.91
2019-03-25T06:36:32.333Z,1006.90
2019-03-25T06:37:32.592Z,1006.96
2019-03-25T06:38:32.941Z,1007.00
2019-03-25T06:39:33.264Z,1007.00
2019-03-25T06:40:33.595Z,1007.00
2019-03-25T06:41:33.895Z,1007.01
2019-03-25T06:42:34.242Z,1006.95
2019-03-25T06:43:34.611Z,1006.98
2019-03-25T06:44:35.037Z,1007.00
2019-03-25T06:45:35.256Z,1007.04
2019-03-25T06:46:35.560Z,1007.10
2019-03-25T06:47:35.913Z,1007.02
2019-03-25T06:48:36.246Z,1007.12
2019-03-25T06:49:36.575Z,1007.11
2019-03-25T06:50:36.919Z,1007.09
2019-03-25T06:51:37.232Z,1007.10
2019-03-25T06:52:37.630Z,1007.10
2019-03-25T06:53:37.893Z,1007.05
2019-03-25T06:54:38.220Z,1007.13
2019-03-25T06:55:38.556Z,1007.07
2019-03-25T06:56:38.868Z,1007.08
2019-03-25T06:57:39.182Z,1007.09
2019-03-25T06:58:39.545Z,1007.06
2019-03-25T06:59:39.885Z,1007.10
2019-03-25T07:00:40.299Z,1007.10
2019-03-25T07:01:40.517Z,1007.13
2019-03-25T07:02:40.858Z,1007.09
2019-03-25T07:03:41.185Z,1007.12
2019-03-25T07:04:41.515Z,1007.08
2019-03-25T07:05:41.857Z,1007.15
2019-03-25T07:06:42.171Z,1007.14
2019-03-25T07:07:42.500Z,1007.13
2019-03-25T07:08:42.926Z,1007.21
2019-03-25T07:09:43.158Z,1007.18
2019-03-25T07:10:43.515Z,1007.19
2019-03-25T07:11:43.823Z,1007.27
2019-03-25T07:12:44.154Z,1007.23
2019-03-25T07:13:44.514Z,1007.21
2019-03-25T07:14:44.823Z,1007.17
2019-03-25T07:15:45.150Z,1007.21
2019-03-25T07:16:45.490Z,1007.18
2019-03-25T07:17:45.956Z,1007.20
2019-03-25T07:18:46.407Z,1007.22
2019-03-25T07:19:46.492Z,1007.16
2019-03-25T07:20:46.795Z,1007.23
2019-03-25T07:21:47.142Z,1007.25
2019-03-25T07:22:47.489Z,1007.27
2019-03-25T07:23:47.831Z,1007.24
2019-03-25T07:24:48.150Z,1007.27
2019-03-25T07:25:48.604Z,1007.23
2019-03-25T07:26:48.837Z,1007.29
2019-03-25T07:27:49.167Z,1007.22
2019-03-25T07:28:49.510Z,1007.20
2019-03-25T07:29:49.833Z,1007.19
2019-03-25T07:30:50.157Z,1007.25
2019-03-25T07:31:50.477Z,1007.17
2019-03-25T07:32:50.834Z,1007.17
2019-03-25T07:33:51.261Z,1007.27
2019-03-25T07:34:51.483Z,1007.18
2019-03-25T07:35:51.812Z,1007.17
2019-03-25T07:36:52.170Z,1007.21
2019-03-25T07:37:52.456Z,1007.16
2019-03-25T07:38:52.822Z,1007.21
2019-03-25T07:39:53.141Z,1007.19
2019-03-25T07:40:53.466Z,1007.23
2019-03-25T07:41:53.873Z,1007.21
2019-03-25T07:42:54.074Z,1007.24
2019-03-25T07:43:54.454Z,1007.23
2019-03-25T07:44:54.829Z,1007.23
2019-03-25T07:45:55.123Z,1007.24
2019-03-25T07:46:55.473Z,1007.30
2019-03-25T07:47:55.784Z,1007.24
2019-03-25T07:48:56.134Z,1007.28
2019-03-25T07:49:56.474Z,1007.29
2019-03-25T07:50:56.861Z,1007.24
2019-03-25T07:51:57.125Z,1007.19
2019-03-25T07:52:57.438Z,1007.25
2019-03-25T07:53:57.794Z,1007.25
2019-03-25T07:54:58.119Z,1007.23
2019-03-25T07:55:58.434Z,1007.25
2019-03-25T07:56:58.787Z,1007.23
2019-03-25T07:57:59.098Z,1007.31
2019-03-25T07:58:59.546Z,1007.26
2019-03-25T07:59:59.782Z,1007.27
2019-03-25T08:01:00.075Z,1007.20
2019-03-25T08:02:00.423Z,1007.24
2019-03-25T08:03:00.735Z,1007.21
2019-03-25T08:04:01.092Z,1007.29
2019-03-25T08:05:01.431Z,1007.32
2019-03-25T08:06:01.730Z,1007.38
2019-03-25T08:07:02.182Z,1007.43
2019-03-25T08:08:02.392Z,1007.34
2019-03-25T08:09:03.919Z,1007.34
2019-03-25T08:10:03.126Z,1007.36
2019-03-25T08:11:03.373Z,1007.36
2019-03-25T08:12:03.772Z,1007.34
2019-03-25T08:13:04.093Z,1007.34
2019-03-25T08:14:04.430Z,1007.43
2019-03-25T08:15:04.854Z,1007.34
2019-03-25T08:16:05.022Z,1007.30
2019-03-25T08:17:05.359Z,1007.41
2019-03-25T08:18:05.690Z,1007.33
2019-03-25T08:19:06.030Z,1007.31
2019-03-25T08:20:06.376Z,1007.23
2019-03-25T08:21:06.674Z,1007.36
2019-03-25T08:22:07.027Z,1007.34
2019-03-25T08:23:07.361Z,1007.34
2019-03-25T08:24:07.712Z,1007.41
2019-03-25T08:25:08.020Z,1007.35
2019-03-25T08:26:08.335Z,1007.37
2019-03-25T08:27:08.673Z,1007.48
2019-03-25T08:28:08.977Z,1007.37
2019-03-25T08:29:09.326Z,1007.37
2019-03-25T08:30:09.681Z,1007.28
2019-03-25T08:31:10.059Z,1007.27
2019-03-25T08:32:10.466Z,1007.41
2019-03-25T08:33:10.647Z,1007.36
2019-03-25T08:34:10.991Z,1007.38
2019-03-25T08:35:11.345Z,1007.40
2019-03-25T08:36:11.687Z,1007.39
2019-03-25T08:37:12.021Z,1007.47
2019-03-25T08:38:12.325Z,1007.55
2019-03-25T08:39:12.645Z,1007.45
2019-03-25T08:40:13.189Z,1007.41
2019-03-25T08:41:13.399Z,1007.43
2019-03-25T08:42:13.737Z,1007.47
2019-03-25T08:43:14.049Z,1007.47
2019-03-25T08:44:14.369Z,1007.51
2019-03-25T08:45:14.725Z,1007.58
2019-03-25T08:46:15.049Z,1007.53
2019-03-25T08:47:15.388Z,1007.60
2019-03-25T08:48:15.786Z,1007.54
2019-03-25T08:49:16.014Z,1007.60
2019-03-25T08:50:16.353Z,1007.60
2019-03-25T08:51:16.690Z,1007.52
2019-03-25T08:52:17.026Z,1007.59
2019-03-25T08:53:17.340Z,1007.50
2019-03-25T08:54:17.673Z,1007.56
2019-03-25T08:55:18.261Z,1007.57
2019-03-25T08:56:18.348Z,1007.68
2019-03-25T08:57:18.661Z,1007.62
2019-03-25T08:58:18.985Z,1007.54
2019-03-25T08:59:19.310Z,1007.60
2019-03-25T09:00:19.669Z,1007.74
2019-03-25T09:01:19.986Z,1007.66
2019-03-25T09:02:20.314Z,1007.73
2019-03-25T09:03:20.649Z,1007.70
2019-03-25T09:04:21.240Z,1007.70
2019-03-25T09:05:21.414Z,1007.70
2019-03-25T09:06:21.643Z,1007.70
2019-03-25T09:07:21.965Z,1007.71
2019-03-25T09:08:22.294Z,1007.73
2019-03-25T09:09:22.640Z,1007.72
2019-03-25T09:10:22.986Z,1007.76
2019-03-25T09:11:23.309Z,1007.70
2019-03-25T09:12:23.650Z,1007.67
2019-03-25T09:13:24.045Z,1007.71
2019-03-25T09:14:24.283Z,1007.71
2019-03-25T09:15:24.626Z,1007.79
2019-03-25T09:16:24.946Z,1007.71
2019-03-25T09:17:25.295Z,1007.68
2019-03-25T09:18:25.595Z,1007.78
2019-03-25T09:19:25.949Z,1007.77
2019-03-25T09:20:26.309Z,1007.73
2019-03-25T09:21:26.727Z,1007.76
2019-03-25T09:22:26.955Z,1007.78
2019-03-25T09:23:27.267Z,1007.79
2019-03-25T09:24:27.585Z,1007.79
2019-03-25T09:25:27.954Z,1007.80
2019-03-25T09:26:28.268Z,1007.81
2019-03-25T09:27:28.597Z,1007.87
2019-03-25T09:28:28.917Z,1007.82
2019-03-25T09:29:29.268Z,1007.93
2019-03-25T09:30:29.573Z,1007.86
2019-03-25T09:31:36.838Z,1007.90
2019-03-25T09:32:31.259Z,1007.98
2019-03-25T09:33:30.581Z,1007.87
2019-03-25T09:34:30.897Z,1007.89
2019-03-25T09:35:31.251Z,1007.86
2019-03-25T09:36:31.570Z,1007.85
2019-03-25T09:37:31.949Z,1007.90
2019-03-25T09:38:32.266Z,1007.99
2019-03-25T09:39:32.566Z,1007.95
2019-03-25T09:40:32.903Z,1007.98
2019-03-25T09:41:33.229Z,1008.03
2019-03-25T09:42:33.549Z,1008.00
2019-03-25T09:43:33.872Z,1007.95
2019-03-25T09:44:34.202Z,1008.03
2019-03-25T09:45:34.577Z,1008.05
2019-03-25T09:46:34.979Z,1008.01
2019-03-25T09:47:37.642Z,1007.97
2019-03-25T09:48:35.530Z,1008.03
2019-03-25T09:49:35.865Z,1008.11
2019-03-25T09:50:36.210Z,1008.08
2019-03-25T09:51:36.532Z,1008.15
2019-03-25T09:52:38.665Z,1008.17
2019-03-25T09:53:37.189Z,1008.17
2019-03-25T09:54:37.660Z,1008.10
2019-03-25T09:55:37.885Z,1008.04
2019-03-25T09:56:38.214Z,1008.11
2019-03-25T09:57:38.510Z,1008.16
2019-03-25T09:58:38.876Z,1008.08
2019-03-25T09:59:39.183Z,1008.17
2019-03-25T10:00:39.534Z,1008.12
2019-03-25T10:01:39.848Z,1008.17
2019-03-25T10:02:40.208Z,1008.07
2019-03-25T10:03:40.499Z,1008.16
2019-03-25T10:04:40.835Z,1008.12
2019-03-25T10:05:41.179Z,1008.15
2019-03-25T10:06:41.502Z,1008.23
2019-03-25T10:07:41.843Z,1008.18
2019-03-25T10:08:42.170Z,1008.21
2019-03-25T10:09:42.469Z,1008.17
2019-03-25T10:10:42.886Z,1008.25
2019-03-25T10:11:43.117Z,1008.23
2019-03-25T10:12:43.479Z,1008.24
2019-03-25T10:13:43.797Z,1008.21
2019-03-25T10:14:44.102Z,1008.17
2019-03-25T10:15:44.466Z,1008.16
2019-03-25T10:16:44.803Z,1008.18
2019-03-25T10:17:45.132Z,1008.21
2019-03-25T10:18:45.492Z,1008.31
2019-03-25T10:19:45.858Z,1008.31
2019-03-25T10:20:46.131Z,1008.36
2019-03-25T10:21:46.457Z,1008.28
2019-03-25T10:22:46.795Z,1008.36
2019-03-25T10:23:47.147Z,1008.33
2019-03-25T10:24:47.446Z,1008.42
2019-03-25T10:25:47.796Z,1008.34
2019-03-25T10:26:48.095Z,1008.43
2019-03-25T10:27:48.575Z,1008.46
2019-03-25T10:28:49.315Z,1008.33
2019-03-25T10:29:49.094Z,1008.36
2019-03-25T10:30:49.428Z,1008.47
2019-03-25T10:31:49.749Z,1008.42
2019-03-25T10:32:50.095Z,1008.42
2019-03-25T10:33:50.431Z,1008.46
2019-03-25T10:34:50.979Z,1008.43
2019-03-25T10:35:51.181Z,1008.45
2019-03-25T10:36:51.387Z,1008.40
2019-03-25T10:37:51.816Z,1008.42
2019-03-25T10:38:52.076Z,1008.47
2019-03-25T10:39:52.388Z,1008.45
2019-03-25T10:40:52.728Z,1008.42
2019-03-25T10:41:53.049Z,1008.46
2019-03-25T10:42:53.371Z,1008.46
2019-03-25T10:43:53.760Z,1008.44
2019-03-25T10:44:54.036Z,1008.47
2019-03-25T10:45:54.388Z,1008.57
2019-03-25T10:46:54.698Z,1008.46
2019-03-25T10:47:55.055Z,1008.53
2019-03-25T10:48:55.407Z,1008.55
2019-03-25T10:49:55.683Z,1008.46
2019-03-25T10:50:56.032Z,1008.52
2019-03-25T10:51:56.385Z,1008.51
2019-03-25T10:52:56.754Z,1008.55
2019-03-25T10:53:57.026Z,1008.48
2019-03-25T10:55:57.701Z,1008.50
2019-03-25T10:56:58.051Z,1008.48
2019-03-25T10:57:58.386Z,1008.43
2019-03-25T10:58:58.728Z,1008.54
2019-03-25T10:59:59.049Z,1008.48
2019-03-25T11:00:59.487Z,1008.42
2019-03-25T11:01:59.709Z,1008.39
2019-03-25T11:03:00.038Z,1008.43
2019-03-25T11:04:00.377Z,1008.45
2019-03-25T11:05:00.676Z,1008.47
2019-03-25T11:06:01.017Z,1008.40
2019-03-25T11:07:01.374Z,1008.48
2019-03-25T11:08:01.681Z,1008.45
2019-03-25T11:09:02.117Z,1008.44
2019-03-25T11:10:02.320Z,1008.48
2019-03-25T11:11:03.522Z,1008.39
2019-03-25T11:12:03.046Z,1008.49
2019-03-25T11:13:03.337Z,1008.48
2019-03-25T11:14:03.671Z,1008.47
2019-03-25T11:15:03.984Z,1008.56
2019-03-25T11:16:04.300Z,1008.43
2019-03-25T11:17:04.701Z,1008.46
2019-03-25T11:18:05.802Z,1008.38
2019-03-25T11:19:05.312Z,1008.36
2019-03-25T11:20:05.623Z,1008.35
2019-03-25T11:21:05.953Z,1008.41
2019-03-25T11:22:06.285Z,1008.33
2019-03-25T11:23:06.625Z,1008.24
2019-03-25T11:24:06.959Z,1008.25
2019-03-25T11:25:07.338Z,1008.38
2019-03-25T11:26:07.577Z,1008.32
2019-03-25T11:27:07.932Z,1008.24
2019-03-25T11:28:08.241Z,1008.25
2019-03-25T11:29:08.956Z,1008.30
2019-03-25T11:30:08.909Z,1008.22
2019-03-25T11:31:09.370Z,1008.26
2019-03-25T11:32:09.590Z,1008.29
2019-03-25T11:33:09.941Z,1008.35
2019-03-25T11:34:10.292Z,1008.36
2019-03-25T11:35:10.558Z,1008.29
2019-03-25T11:36:10.879Z,1008.36
2019-03-25T11:37:11.283Z,1008.40
2019-03-25T11:38:11.555Z,1008.36
2019-03-25T11:39:11.879Z,1008.28
2019-03-25T11:40:12.213Z,1008.33
2019-03-25T11:41:12.542Z,1008.44
2019-03-25T11:42:12.985Z,1008.42
2019-03-25T11:43:13.191Z,1008.38
2019-03-25T11:44:13.536Z,1008.47
2019-03-25T11:45:13.864Z,1008.46
2019-03-25T11:46:14.193Z,1008.46
2019-03-25T11:47:14.540Z,1008.42
2019-03-25T11:48:14.865Z,1008.52
2019-03-25T11:49:15.197Z,1008.40
2019-03-25T11:50:15.611Z,1008.47
2019-03-25T11:51:15.837Z,1008.45
2019-03-25T11:52:16.178Z,1008.40
2019-03-25T11:53:16.510Z,1008.51
2019-03-25T11:54:16.816Z,1008.46
2019-03-25T11:55:17.827Z,1008.47
2019-03-25T11:56:17.490Z,1008.48
2019-03-25T11:57:17.874Z,1008.44
2019-03-25T11:58:18.203Z,1008.43
2019-03-25T11:59:18.998Z,1008.47
2019-03-25T12:00:18.796Z,1008.39
2019-03-25T12:01:19.148Z,1008.39
2019-03-25T12:02:19.500Z,1008.30
2019-03-25T12:03:19.826Z,1008.36
2019-03-25T12:04:20.145Z,1008.33
2019-03-25T12:05:20.494Z,1008.32
2019-03-25T12:06:20.865Z,1008.30
2019-03-25T12:07:21.195Z,1008.27
2019-03-25T12:08:21.505Z,1008.25
2019-03-25T12:09:21.816Z,1008.27
2019-03-25T12:10:22.162Z,1008.22